createdAt,value
2018-04-27T00:00:06.506Z,0
2018-04-27T00:01:16.373Z,0
2018-04-27T00:02:26.057Z,0
2018-04-27T00:03:36.199Z,0
2018-04-27T00:04:46.333Z,0
2018-04-27T00:05:56.303Z,0
2018-04-27T00:07:06.072Z,0
2018-04-27T00:08:16.189Z,0
2018-04-27T00:09:26.442Z,0
2018-04-27T00:10:36.581Z,0
2018-04-27T00:11:46.726Z,0
2018-04-27T00:12:56.906Z,0
2018-04-27T00:14:07.237Z,0
2018-04-27T00:15:17.375Z,0
2018-04-27T00:16:27.122Z,0
2018-04-27T00:17:37.498Z,0
2018-04-27T00:18:47.629Z,0
2018-04-27T00:19:57.518Z,0
2018-04-27T00:21:07.666Z,0
2018-04-27T00:22:17.819Z,0
2018-04-27T00:23:27.947Z,0
2018-04-27T00:24:37.797Z,0
2018-04-27T00:25:47.943Z,0
2018-04-27T00:26:58.148Z,0
2018-04-27T00:28:08.326Z,0
2018-04-27T00:29:18.465Z,0
2018-04-27T00:30:28.583Z,0
2018-04-27T00:31:38.712Z,0
2018-04-27T00:32:48.868Z,0
2018-04-27T00:33:59.013Z,0
2018-04-27T00:35:09.151Z,0
2018-04-27T00:36:19.274Z,0
2018-04-27T00:37:29.459Z,0
2018-04-27T00:38:39.563Z,0
2018-04-27T00:39:49.693Z,0
2018-04-27T00:40:59.897Z,0
2018-04-27T00:42:09.777Z,0
2018-04-27T00:43:19.896Z,0
2018-04-27T00:44:30.026Z,0
2018-04-27T00:45:40.170Z,0
2018-04-27T00:46:50.353Z,0
2018-04-27T00:48:00.221Z,0
2018-04-27T00:49:10.241Z,0
2018-04-27T00:50:20.373Z,0
2018-04-27T00:51:30.395Z,0
2018-04-27T00:52:40.541Z,0
2018-04-27T00:53:50.724Z,0
2018-04-27T00:55:00.866Z,0
2018-04-27T00:56:10.984Z,0
2018-04-27T00:57:21.128Z,0
2018-04-27T00:58:31.280Z,0
2018-04-27T00:59:41.518Z,0
2018-04-27T01:00:51.294Z,0
2018-04-27T01:02:01.440Z,0
2018-04-27T01:03:11.580Z,0
2018-04-27T01:04:21.698Z,0
2018-04-27T01:05:31.884Z,0
2018-04-27T01:06:42.049Z,0
2018-04-27T01:07:52.162Z,0
2018-04-27T01:09:02.352Z,0
2018-04-27T01:10:12.137Z,0
2018-04-27T01:11:22.259Z,0
2018-04-27T01:12:32.401Z,0
2018-04-27T01:13:42.585Z,0
2018-04-27T01:14:52.795Z,0
2018-04-27T01:16:02.920Z,0
2018-04-27T01:17:13.059Z,0
2018-04-27T01:18:23.175Z,0
2018-04-27T01:19:33.310Z,0
2018-04-27T01:20:43.548Z,0
2018-04-27T01:21:53.690Z,0
2018-04-27T01:23:03.829Z,0
2018-04-27T01:24:13.649Z,0
2018-04-27T01:25:23.886Z,0
2018-04-27T01:26:34.063Z,0
2018-04-27T01:27:44.220Z,0
2018-04-27T01:28:54.512Z,0
2018-04-27T01:30:04.656Z,0
2018-04-27T01:31:14.434Z,0
2018-04-27T01:32:24.602Z,0
2018-04-27T01:33:34.713Z,0
2018-04-27T01:34:44.856Z,0
2018-04-27T01:35:54.981Z,0
2018-04-27T01:37:05.094Z,0
2018-04-27T01:38:15.246Z,0
2018-04-27T01:39:25.461Z,0
2018-04-27T01:40:35.584Z,0
2018-04-27T01:41:45.439Z,0
2018-04-27T01:42:55.371Z,0
2018-04-27T01:44:05.615Z,0
2018-04-27T01:45:15.757Z,0
2018-04-27T01:46:25.610Z,0
2018-04-27T01:47:35.751Z,0
2018-04-27T01:48:45.892Z,0
2018-04-27T01:49:55.750Z,0
2018-04-27T01:51:05.916Z,0
2018-04-27T01:52:15.685Z,0
2018-04-27T01:53:25.814Z,0
2018-04-27T01:54:36.002Z,0
2018-04-27T01:55:46.252Z,0
2018-04-27T01:56:56.412Z,0
2018-04-27T01:58:06.619Z,0
2018-04-27T01:59:16.747Z,0
2018-04-27T02:00:26.879Z,0
2018-04-27T02:01:37.035Z,0
2018-04-27T02:02:47.160Z,0
2018-04-27T02:03:57.359Z,0
2018-04-27T02:05:07.528Z,0
2018-04-27T02:06:17.832Z,0
2018-04-27T02:07:27.704Z,0
2018-04-27T02:08:37.819Z,0
2018-04-27T02:09:47.958Z,0
2018-04-27T02:10:58.098Z,0
2018-04-27T02:12:09.216Z,0
2018-04-27T02:13:19.087Z,0
2018-04-27T02:14:29.354Z,0
2018-04-27T02:15:39.584Z,0
2018-04-27T02:16:49.474Z,0
2018-04-27T02:17:59.594Z,0
2018-04-27T02:19:09.362Z,0
2018-04-27T02:20:19.506Z,0
2018-04-27T02:21:29.718Z,0
2018-04-27T02:22:39.954Z,0
2018-04-27T02:23:49.821Z,0
2018-04-27T02:24:59.681Z,0
2018-04-27T02:26:09.802Z,0
2018-04-27T02:27:19.962Z,0
2018-04-27T02:28:30.117Z,0
2018-04-27T02:29:39.884Z,0
2018-04-27T02:30:50.020Z,0
2018-04-27T02:32:00.202Z,0
2018-04-27T02:33:10.344Z,0
2018-04-27T02:34:20.518Z,0
2018-04-27T02:35:30.648Z,0
2018-04-27T02:36:40.790Z,0
2018-04-27T02:37:50.799Z,0
2018-04-27T02:39:00.960Z,0
2018-04-27T02:40:10.749Z,0
2018-04-27T02:41:20.901Z,0
2018-04-27T02:42:31.036Z,0
2018-04-27T02:43:41.199Z,0
2018-04-27T02:44:50.969Z,0
2018-04-27T02:46:01.127Z,0
2018-04-27T02:47:11.168Z,0
2018-04-27T02:48:21.013Z,0
2018-04-27T02:49:31.215Z,0
2018-04-27T02:50:41.388Z,0
2018-04-27T02:51:51.511Z,0
2018-04-27T02:53:01.660Z,0
2018-04-27T02:54:11.801Z,0
2018-04-27T02:55:21.926Z,0
2018-04-27T02:56:31.974Z,0
2018-04-27T02:57:42.149Z,0
2018-04-27T02:58:52.403Z,0
2018-04-27T03:00:02.594Z,0
2018-04-27T03:01:12.742Z,0
2018-04-27T03:02:22.615Z,0
2018-04-27T03:03:32.497Z,0
2018-04-27T03:04:42.636Z,0
2018-04-27T03:05:52.493Z,0
2018-04-27T03:07:02.613Z,0
2018-04-27T03:08:12.755Z,0
2018-04-27T03:09:22.873Z,0
2018-04-27T03:10:33.036Z,0
2018-04-27T03:11:43.221Z,0
2018-04-27T03:12:53.541Z,0
2018-04-27T03:14:03.772Z,0
2018-04-27T03:15:13.892Z,0
2018-04-27T03:16:23.936Z,4
2018-04-27T03:17:34.055Z,0
2018-04-27T03:18:43.921Z,0
2018-04-27T03:19:54.049Z,4
2018-04-27T03:21:04.183Z,0
2018-04-27T03:22:14.352Z,4
2018-04-27T03:23:24.476Z,4
2018-04-27T03:24:34.611Z,4
2018-04-27T03:25:44.731Z,4
2018-04-27T03:26:54.886Z,8
2018-04-27T03:28:05.060Z,8
2018-04-27T03:29:14.967Z,8
2018-04-27T03:30:25.201Z,8
2018-04-27T03:31:35.341Z,12
2018-04-27T03:32:45.468Z,16
2018-04-27T03:33:55.336Z,20
2018-04-27T03:35:05.467Z,24
2018-04-27T03:36:15.645Z,28
2018-04-27T03:37:25.834Z,32
2018-04-27T03:38:36.084Z,36
2018-04-27T03:39:46.290Z,44
2018-04-27T03:40:56.567Z,52
2018-04-27T03:42:06.690Z,60
2018-04-27T03:43:16.946Z,72
2018-04-27T03:44:27.144Z,80
2018-04-27T03:45:37.299Z,96
2018-04-27T03:46:47.557Z,108
2018-04-27T03:47:57.775Z,128
2018-04-27T03:49:07.495Z,144
2018-04-27T03:50:17.647Z,164
2018-04-27T03:51:27.568Z,188
2018-04-27T03:52:37.768Z,212
2018-04-27T03:53:47.971Z,240
2018-04-27T03:54:58.155Z,272
2018-04-27T03:56:08.392Z,292
2018-04-27T03:57:18.334Z,324
2018-04-27T03:58:28.519Z,364
2018-04-27T03:59:38.646Z,400
2018-04-27T04:00:48.540Z,432
2018-04-27T04:01:58.695Z,452
2018-04-27T04:03:08.578Z,480
2018-04-27T04:04:18.700Z,516
2018-04-27T04:05:28.845Z,556
2018-04-27T04:06:38.990Z,596
2018-04-27T04:07:49.103Z,636
2018-04-27T04:08:59.280Z,664
2018-04-27T04:10:09.431Z,684
2018-04-27T04:11:19.580Z,708
2018-04-27T04:12:29.715Z,744
2018-04-27T04:13:40.038Z,772
2018-04-27T04:14:49.968Z,804
2018-04-27T04:16:00.247Z,840
2018-04-27T04:17:10.395Z,880
2018-04-27T04:18:20.286Z,916
2018-04-27T04:19:30.148Z,956
2018-04-27T04:20:40.272Z,992
2018-04-27T04:21:50.463Z,1032
2018-04-27T04:23:00.339Z,1060
2018-04-27T04:24:10.486Z,1076
2018-04-27T04:25:20.616Z,1076
2018-04-27T04:26:30.750Z,1100
2018-04-27T04:27:41.958Z,1132
2018-04-27T04:28:52.109Z,1176
2018-04-27T04:30:02.223Z,1232
2018-04-27T04:31:12.170Z,1292
2018-04-27T04:32:22.533Z,1360
2018-04-27T04:33:32.745Z,1428
2018-04-27T04:34:42.627Z,1484
2018-04-27T04:35:52.607Z,1524
2018-04-27T04:37:02.822Z,1560
2018-04-27T04:38:12.999Z,1576
2018-04-27T04:39:23.325Z,1576
2018-04-27T04:40:33.453Z,1632
2018-04-27T04:41:43.612Z,1696
2018-04-27T04:42:53.734Z,1760
2018-04-27T04:44:03.934Z,1808
2018-04-27T04:45:14.262Z,1848
2018-04-27T04:46:24.395Z,1904
2018-04-27T04:47:34.623Z,2004
2018-04-27T04:48:44.810Z,2108
2018-04-27T04:49:55.009Z,2208
2018-04-27T04:51:04.899Z,2336
2018-04-27T04:52:14.804Z,2428
2018-04-27T04:53:25.961Z,2480
2018-04-27T04:54:36.146Z,2564
2018-04-27T04:55:46.452Z,2604
2018-04-27T04:56:56.574Z,2656
2018-04-27T04:58:06.459Z,2724
2018-04-27T04:59:16.210Z,2828
2018-04-27T05:00:26.329Z,2892
2018-04-27T05:01:36.496Z,2980
2018-04-27T05:02:46.939Z,3032
2018-04-27T05:03:57.419Z,3024
2018-04-27T05:05:07.701Z,3000
2018-04-27T05:06:17.586Z,3048
2018-04-27T05:07:27.714Z,3028
2018-04-27T05:08:37.478Z,3072
2018-04-27T05:09:47.597Z,3176
2018-04-27T05:10:57.928Z,3196
2018-04-27T05:12:07.768Z,3144
2018-04-27T05:13:17.888Z,3104
2018-04-27T05:14:28.034Z,3024
2018-04-27T05:15:37.904Z,3088
2018-04-27T05:16:47.662Z,3216
2018-04-27T05:17:57.805Z,3372
2018-04-27T05:19:07.932Z,3504
2018-04-27T05:20:17.846Z,3664
2018-04-27T05:21:27.966Z,3788
2018-04-27T05:22:38.083Z,3844
2018-04-27T05:23:48.202Z,3808
2018-04-27T05:24:58.408Z,3848
2018-04-27T05:26:08.638Z,3908
2018-04-27T05:27:19.035Z,3976
2018-04-27T05:28:29.200Z,4052
2018-04-27T05:29:39.379Z,4132
2018-04-27T05:30:49.624Z,4180
2018-04-27T05:31:59.834Z,4312
2018-04-27T05:33:09.963Z,4200
2018-04-27T05:34:20.224Z,4160
2018-04-27T05:35:30.399Z,4092
2018-04-27T05:36:40.560Z,4108
2018-04-27T05:37:50.714Z,4152
2018-04-27T05:39:00.856Z,4292
2018-04-27T05:40:10.985Z,4476
2018-04-27T05:41:20.853Z,4664
2018-04-27T05:42:30.983Z,4812
2018-04-27T05:43:41.252Z,4920
2018-04-27T05:44:52.358Z,4892
2018-04-27T05:46:02.590Z,4848
2018-04-27T05:47:12.730Z,4844
2018-04-27T05:48:23.017Z,4880
2018-04-27T05:49:32.614Z,4932
2018-04-27T05:50:42.529Z,4972
2018-04-27T05:51:52.659Z,4940
2018-04-27T05:53:02.860Z,4896
2018-04-27T05:54:13.046Z,4864
2018-04-27T05:55:23.231Z,4844
2018-04-27T05:56:33.359Z,4788
2018-04-27T05:57:43.210Z,4640
2018-04-27T05:58:53.366Z,4552
2018-04-27T06:00:03.594Z,4504
2018-04-27T06:01:13.735Z,4524
2018-04-27T06:02:23.506Z,4460
2018-04-27T06:03:33.664Z,4412
2018-04-27T06:04:43.958Z,4316
2018-04-27T06:05:54.037Z,4260
2018-04-27T06:07:04.173Z,4228
2018-04-27T06:08:14.330Z,4204
2018-04-27T06:09:24.498Z,4200
2018-04-27T06:10:34.651Z,4228
2018-04-27T06:11:44.793Z,4252
2018-04-27T06:12:54.948Z,4320
2018-04-27T06:14:05.103Z,4312
2018-04-27T06:15:15.268Z,4500
2018-04-27T06:16:25.392Z,4556
2018-04-27T06:17:35.573Z,4540
2018-04-27T06:18:45.735Z,4436
2018-04-27T06:19:55.673Z,4556
2018-04-27T06:21:05.909Z,4404
2018-04-27T06:22:16.036Z,4384
2018-04-27T06:23:25.930Z,4280
2018-04-27T06:24:36.052Z,4240
2018-04-27T06:25:46.650Z,4216
2018-04-27T06:26:56.886Z,4176
2018-04-27T06:28:07.034Z,4196
2018-04-27T06:29:17.077Z,4228
2018-04-27T06:30:27.199Z,4264
2018-04-27T06:31:37.316Z,4388
2018-04-27T06:32:47.469Z,4388
2018-04-27T06:33:57.747Z,4436
2018-04-27T06:35:07.883Z,4476
2018-04-27T06:36:18.118Z,4508
2018-04-27T06:37:28.351Z,4540
2018-04-27T06:38:38.542Z,4584
2018-04-27T06:39:48.734Z,4636
2018-04-27T06:40:58.643Z,4704
2018-04-27T06:42:08.807Z,4732
2018-04-27T06:43:18.950Z,4592
2018-04-27T06:44:29.087Z,4520
2018-04-27T06:45:40.026Z,4600
2018-04-27T06:46:50.218Z,4636
2018-04-27T06:48:00.370Z,4540
2018-04-27T06:49:10.556Z,4488
2018-04-27T06:50:20.791Z,4452
2018-04-27T06:51:30.762Z,4476
2018-04-27T06:52:41.234Z,4448
2018-04-27T06:53:51.152Z,4388
2018-04-27T06:55:01.316Z,4444
2018-04-27T06:56:11.473Z,4568
2018-04-27T06:57:21.641Z,4568
2018-04-27T06:58:32.003Z,4580
2018-04-27T06:59:42.143Z,4616
2018-04-27T07:00:52.383Z,4548
2018-04-27T07:02:02.620Z,4160
2018-04-27T07:03:12.899Z,4348
2018-04-27T07:04:23.027Z,4488
2018-04-27T07:05:33.251Z,4724
2018-04-27T07:06:43.409Z,4776
2018-04-27T07:07:54.243Z,4812
2018-04-27T07:09:04.149Z,4844
2018-04-27T07:10:14.274Z,4880
2018-04-27T07:11:24.141Z,4916
2018-04-27T07:12:36.892Z,4988
2018-04-27T07:13:48.162Z,5072
2018-04-27T07:16:14.283Z,5184
2018-04-27T07:17:24.406Z,5248
2018-04-27T07:18:34.531Z,5288
2018-04-27T07:19:47.662Z,5256
2018-04-27T07:20:57.841Z,5280
2018-04-27T07:22:07.966Z,5476
2018-04-27T07:23:17.855Z,5696
2018-04-27T07:24:28.051Z,5816
2018-04-27T07:25:38.221Z,5924
2018-04-27T07:26:48.436Z,6024
2018-04-27T07:27:58.642Z,6136
2018-04-27T07:29:08.794Z,6204
2018-04-27T07:30:18.688Z,6168
2018-04-27T07:31:29.824Z,6488
2018-04-27T07:32:39.959Z,6592
2018-04-27T07:33:50.111Z,6704
2018-04-27T07:35:00.253Z,6744
2018-04-27T07:36:10.397Z,7056
2018-04-27T07:37:20.526Z,7252
2018-04-27T07:38:30.658Z,7408
2018-04-27T07:39:41.039Z,7648
2018-04-27T07:40:51.572Z,7888
2018-04-27T07:42:01.749Z,8080
2018-04-27T07:43:11.615Z,8280
2018-04-27T07:44:21.756Z,8404
2018-04-27T07:45:32.057Z,8216
2018-04-27T07:46:42.194Z,8436
2018-04-27T07:47:52.379Z,8720
2018-04-27T07:49:02.546Z,8952
2018-04-27T07:51:23.957Z,9320
2018-04-27T07:52:34.264Z,9304
2018-04-27T07:53:44.448Z,9248
2018-04-27T07:56:09.697Z,8728
2018-04-27T07:57:19.577Z,9212
2018-04-27T07:59:42.413Z,9080
2018-04-27T08:00:52.593Z,9036
2018-04-27T08:03:15.477Z,9408
2018-04-27T08:06:54.232Z,9332
2018-04-27T08:08:04.384Z,9400
2018-04-27T08:09:18.454Z,9632
2018-04-27T08:10:28.631Z,9612
2018-04-27T08:11:38.859Z,9692
2018-04-27T08:14:04.921Z,10312
2018-04-27T08:15:16.322Z,10192
2018-04-27T08:16:26.510Z,10108
2018-04-27T08:17:36.769Z,10504
2018-04-27T08:20:06.657Z,11044
2018-04-27T08:21:16.417Z,11544
2018-04-27T08:22:26.549Z,12104
2018-04-27T08:23:36.722Z,11940
2018-04-27T08:24:46.661Z,11908
2018-04-27T08:25:56.819Z,13592
2018-04-27T08:27:06.980Z,14620
2018-04-27T08:28:16.875Z,15584
2018-04-27T08:29:26.758Z,16352
2018-04-27T08:30:36.971Z,17408
2018-04-27T08:31:47.137Z,17184
2018-04-27T08:32:57.286Z,17952
2018-04-27T08:34:07.545Z,18304
2018-04-27T08:35:17.696Z,29952
2018-04-27T08:36:27.968Z,60128
2018-04-27T08:37:38.097Z,63616
2018-04-27T08:38:48.231Z,59200
2018-04-27T08:39:58.371Z,47104
2018-04-27T08:41:08.514Z,62240
2018-04-27T08:42:18.702Z,53184
2018-04-27T08:43:28.867Z,53664
2018-04-27T08:44:39.178Z,62912
2018-04-27T08:45:49.372Z,58592
2018-04-27T08:46:59.360Z,70464
2018-04-27T08:48:09.502Z,68576
2018-04-27T08:49:19.656Z,59360
2018-04-27T08:50:29.494Z,74720
2018-04-27T08:51:39.494Z,63136
2018-04-27T08:52:49.664Z,63008
2018-04-27T08:53:59.847Z,73312
2018-04-27T08:55:10.214Z,58912
2018-04-27T08:56:20.109Z,60736
2018-04-27T08:57:30.267Z,68864
2018-04-27T08:58:40.522Z,63264
2018-04-27T08:59:50.679Z,66208
2018-04-27T09:01:00.840Z,56000
2018-04-27T09:02:11.089Z,57376
2018-04-27T09:03:21.066Z,63584
2018-04-27T09:04:31.285Z,62720
2018-04-27T09:05:41.487Z,64000
2018-04-27T09:06:51.865Z,61120
2018-04-27T09:08:02.098Z,61792
2018-04-27T09:09:12.301Z,76640
2018-04-27T09:10:22.458Z,74720
2018-04-27T09:11:32.642Z,70208
2018-04-27T09:12:42.788Z,83168
2018-04-27T09:13:52.590Z,74944
2018-04-27T09:15:02.725Z,74816
2018-04-27T09:16:12.947Z,78496
2018-04-27T09:17:23.159Z,68928
2018-04-27T09:18:33.320Z,70400
2018-04-27T09:19:43.474Z,75520
2018-04-27T09:20:53.613Z,57152
2018-04-27T09:22:04.761Z,79392
2018-04-27T09:23:15.047Z,86048
2018-04-27T09:24:25.288Z,79040
2018-04-27T09:25:35.487Z,82400
2018-04-27T09:26:45.658Z,80064
2018-04-27T09:27:55.868Z,77248
2018-04-27T09:29:05.800Z,70400
2018-04-27T09:30:15.721Z,73056
2018-04-27T09:31:25.868Z,81632
2018-04-27T09:32:36.012Z,76064
2018-04-27T09:33:46.147Z,71584
2018-04-27T09:34:56.305Z,74528
2018-04-27T09:36:06.493Z,71840
2018-04-27T09:37:16.680Z,81632
2018-04-27T09:38:26.954Z,89792
2018-04-27T09:39:37.271Z,84256
2018-04-27T09:40:47.450Z,79904
2018-04-27T09:41:57.653Z,73792
2018-04-27T09:43:07.837Z,76704
2018-04-27T09:44:17.993Z,97024
2018-04-27T09:45:27.861Z,93824
2018-04-27T09:46:38.014Z,72960
2018-04-27T09:47:47.943Z,75136
2018-04-27T09:48:58.095Z,82304
2018-04-27T09:50:08.283Z,81184
2018-04-27T09:51:18.431Z,78208
2018-04-27T09:52:28.650Z,80640
2018-04-27T09:53:38.839Z,45632
2018-04-27T09:54:49.017Z,74048
2018-04-27T09:55:59.270Z,91552
2018-04-27T09:57:09.519Z,89280
2018-04-27T09:58:19.675Z,88256
2018-04-27T09:59:29.932Z,100768
2018-04-27T10:00:40.133Z,85344
2018-04-27T10:01:50.354Z,67552
2018-04-27T10:03:00.263Z,13672
2018-04-27T10:04:10.100Z,22944
2018-04-27T10:05:20.288Z,85792
2018-04-27T10:06:30.554Z,29120
2018-04-27T10:07:40.689Z,87936
2018-04-27T10:08:50.835Z,101600
2018-04-27T10:10:00.733Z,94464
2018-04-27T10:11:10.610Z,86784
2018-04-27T10:12:20.499Z,92416
2018-04-27T10:13:30.649Z,96096
2018-04-27T10:14:40.525Z,99424
2018-04-27T10:15:50.768Z,100288
2018-04-27T10:17:01.167Z,90336
2018-04-27T10:18:11.441Z,78880
2018-04-27T10:19:21.732Z,82432
2018-04-27T10:20:31.722Z,82720
2018-04-27T10:21:41.976Z,65600
2018-04-27T10:22:52.128Z,75552
2018-04-27T10:24:02.322Z,104192
2018-04-27T10:25:12.211Z,100928
2018-04-27T10:26:22.362Z,93536
2018-04-27T10:27:32.538Z,35264
2018-04-27T10:28:42.697Z,27744
2018-04-27T10:29:53.834Z,82176
2018-04-27T10:31:04.265Z,86912
2018-04-27T10:32:14.448Z,83584
2018-04-27T10:33:24.346Z,84704
2018-04-27T10:34:34.584Z,28384
2018-04-27T10:35:44.734Z,30400
2018-04-27T10:36:54.669Z,30304
2018-04-27T10:38:04.894Z,89536
2018-04-27T10:39:15.069Z,82528
2018-04-27T10:40:25.229Z,78144
2018-04-27T10:41:35.530Z,72192
2018-04-27T10:42:45.775Z,67744
2018-04-27T10:43:56.016Z,71008
2018-04-27T10:45:06.186Z,71456
2018-04-27T10:46:16.381Z,65760
2018-04-27T10:47:26.312Z,72800
2018-04-27T10:48:36.479Z,78656
2018-04-27T10:49:46.665Z,71936
2018-04-27T10:50:56.807Z,66080
2018-04-27T10:52:07.012Z,63648
2018-04-27T10:53:16.640Z,60128
2018-04-27T10:54:26.860Z,59968
2018-04-27T10:55:36.744Z,60704
2018-04-27T10:56:46.918Z,65216
2018-04-27T10:57:56.805Z,65952
2018-04-27T10:59:06.973Z,60960
2018-04-27T11:00:17.177Z,67040
2018-04-27T11:01:27.404Z,74016
2018-04-27T11:02:37.612Z,70336
2018-04-27T11:03:47.862Z,67552
2018-04-27T11:04:58.033Z,63840
2018-04-27T11:06:08.186Z,65888
2018-04-27T11:07:18.466Z,67168
2018-04-27T11:08:28.672Z,28224
2018-04-27T11:09:38.880Z,72480
2018-04-27T11:10:49.175Z,66368
2018-04-27T11:11:59.350Z,62464
2018-04-27T11:13:09.596Z,56640
2018-04-27T11:14:19.489Z,55968
2018-04-27T11:15:29.640Z,56384
2018-04-27T11:16:39.794Z,57504
2018-04-27T11:17:50.097Z,54240
2018-04-27T11:19:00.264Z,49088
2018-04-27T11:20:10.485Z,55520
2018-04-27T11:21:20.530Z,61024
2018-04-27T11:22:30.712Z,50912
2018-04-27T11:23:40.856Z,58688
2018-04-27T11:24:51.040Z,62112
2018-04-27T11:26:00.993Z,27840
2018-04-27T11:27:11.292Z,36736
2018-04-27T11:28:21.307Z,49120
2018-04-27T11:29:31.463Z,30944
2018-04-27T11:30:41.634Z,32544
2018-04-27T11:31:51.574Z,67328
2018-04-27T11:33:01.844Z,63712
2018-04-27T11:34:12.061Z,52608
2018-04-27T11:35:22.037Z,54848
2018-04-27T11:36:31.940Z,64320
2018-04-27T11:37:41.886Z,61120
2018-04-27T11:38:53.005Z,72288
2018-04-27T11:40:02.792Z,80480
2018-04-27T11:41:13.080Z,94976
2018-04-27T11:42:23.423Z,79712
2018-04-27T11:43:33.569Z,93888
2018-04-27T11:44:43.717Z,87264
2018-04-27T11:45:54.841Z,88320
2018-04-27T11:47:05.044Z,86624
2018-04-27T11:48:15.251Z,99648
2018-04-27T11:49:25.496Z,38368
2018-04-27T11:50:35.661Z,69888
2018-04-27T11:51:45.923Z,73600
2018-04-27T11:52:55.712Z,82464
2018-04-27T11:54:05.934Z,68544
2018-04-27T11:55:16.110Z,56960
2018-04-27T11:56:26.275Z,47168
2018-04-27T11:57:36.495Z,58176
2018-04-27T11:58:46.679Z,47936
2018-04-27T11:59:57.802Z,55008
2018-04-27T12:01:08.276Z,61888
2018-04-27T12:02:18.447Z,64480
2018-04-27T12:03:28.651Z,48032
2018-04-27T12:04:38.824Z,50400
2018-04-27T12:05:48.995Z,58112
2018-04-27T12:06:59.169Z,64416
2018-04-27T12:08:09.574Z,56256
2018-04-27T12:09:19.749Z,51840
2018-04-27T12:10:29.984Z,51488
2018-04-27T12:11:40.148Z,49472
2018-04-27T12:12:50.341Z,52192
2018-04-27T12:14:00.549Z,61056
2018-04-27T12:15:10.722Z,60320
2018-04-27T12:16:21.010Z,56896
2018-04-27T12:17:31.333Z,57120
2018-04-27T12:18:41.595Z,55104
2018-04-27T12:19:51.472Z,62368
2018-04-27T12:21:02.608Z,58560
2018-04-27T12:22:12.542Z,51328
2018-04-27T12:23:22.177Z,48512
2018-04-27T12:24:32.455Z,45408
2018-04-27T12:25:42.371Z,26752
2018-04-27T12:26:52.570Z,51616
2018-04-27T12:28:02.802Z,50784
2018-04-27T12:29:13.013Z,46368
2018-04-27T12:30:23.284Z,48256
2018-04-27T12:31:33.744Z,45312
2018-04-27T12:32:44.234Z,40800
2018-04-27T12:33:54.413Z,38816
2018-04-27T12:35:04.629Z,40832
2018-04-27T12:36:14.572Z,41056
2018-04-27T12:37:24.735Z,41792
2018-04-27T12:38:34.913Z,35872
2018-04-27T12:39:45.103Z,38080
2018-04-27T12:40:55.301Z,39296
2018-04-27T12:42:05.478Z,39232
2018-04-27T12:43:15.659Z,31552
2018-04-27T12:44:25.869Z,24544
2018-04-27T12:45:36.064Z,40352
2018-04-27T12:46:45.921Z,26976
2018-04-27T12:47:56.202Z,52992
2018-04-27T12:49:06.466Z,28896
2018-04-27T12:50:16.177Z,59744
2018-04-27T12:51:26.384Z,52160
2018-04-27T12:52:36.570Z,51584
2018-04-27T12:53:46.747Z,28928
2018-04-27T12:54:57.000Z,43520
2018-04-27T12:56:07.236Z,26432
2018-04-27T12:57:17.450Z,39072
2018-04-27T12:58:27.680Z,25120
2018-04-27T12:59:37.896Z,37952
2018-04-27T13:00:48.075Z,19136
2018-04-27T13:01:58.471Z,16704
2018-04-27T13:03:08.779Z,15840
2018-04-27T13:04:18.948Z,14976
2018-04-27T13:05:29.104Z,14784
2018-04-27T13:06:38.806Z,15840
2018-04-27T13:07:48.996Z,17312
2018-04-27T13:08:58.984Z,36800
2018-04-27T13:10:09.182Z,49344
2018-04-27T13:11:19.367Z,42816
2018-04-27T13:12:29.586Z,37056
2018-04-27T13:13:40.759Z,41600
2018-04-27T13:14:50.931Z,48928
2018-04-27T13:16:01.142Z,46240
2018-04-27T13:17:11.331Z,25056
2018-04-27T13:18:21.273Z,44960
2018-04-27T13:19:31.180Z,46656
2018-04-27T13:20:41.047Z,37440
2018-04-27T13:21:51.232Z,19392
2018-04-27T13:23:01.223Z,19776
2018-04-27T13:24:11.443Z,18592
2018-04-27T13:25:21.698Z,26336
2018-04-27T13:26:32.140Z,20384
2018-04-27T13:27:42.634Z,22048
2018-04-27T13:28:52.893Z,33408
2018-04-27T13:30:04.064Z,35008
2018-04-27T13:31:14.279Z,35968
2018-04-27T13:32:24.539Z,36512
2018-04-27T13:33:34.867Z,43648
2018-04-27T13:34:46.030Z,39744
2018-04-27T13:35:56.415Z,37312
2018-04-27T13:37:06.630Z,28544
2018-04-27T13:38:16.831Z,23040
2018-04-27T13:39:27.058Z,19136
2018-04-27T13:40:37.232Z,28896
2018-04-27T13:41:47.437Z,33920
2018-04-27T13:42:57.643Z,41440
2018-04-27T13:44:07.958Z,38080
2018-04-27T13:45:18.139Z,30880
2018-04-27T13:46:28.321Z,19392
2018-04-27T13:47:38.508Z,18112
2018-04-27T13:48:48.724Z,22688
2018-04-27T13:49:58.960Z,25952
2018-04-27T13:51:09.135Z,29248
2018-04-27T13:52:19.493Z,32288
2018-04-27T13:53:29.695Z,28864
2018-04-27T13:54:39.978Z,26848
2018-04-27T13:55:49.986Z,27392
2018-04-27T13:56:59.875Z,27904
2018-04-27T13:58:10.061Z,29216
2018-04-27T13:59:20.314Z,29408
2018-04-27T14:00:30.547Z,17152
2018-04-27T14:01:40.709Z,15040
2018-04-27T14:02:51.487Z,15232
2018-04-27T14:04:01.475Z,21952
2018-04-27T14:05:11.619Z,24288
2018-04-27T14:06:21.798Z,27424
2018-04-27T14:07:32.144Z,28512
2018-04-27T14:08:42.467Z,25536
2018-04-27T14:09:52.665Z,22752
2018-04-27T14:11:02.930Z,34272
2018-04-27T14:12:13.100Z,43904
2018-04-27T14:13:23.033Z,43552
2018-04-27T14:14:33.172Z,38080
2018-04-27T14:15:43.366Z,19424
2018-04-27T14:16:53.619Z,27968
2018-04-27T14:18:03.831Z,16384
2018-04-27T14:19:14.027Z,16032
2018-04-27T14:20:24.361Z,18400
2018-04-27T14:21:34.974Z,38720
2018-04-27T14:22:45.181Z,41696
2018-04-27T14:23:55.419Z,18176
2018-04-27T14:25:05.617Z,49984
2018-04-27T14:26:15.800Z,45696
2018-04-27T14:27:26.122Z,47680
2018-04-27T14:28:36.368Z,36928
2018-04-27T14:29:46.542Z,15776
2018-04-27T14:30:56.721Z,16544
2018-04-27T14:32:06.931Z,45888
2018-04-27T14:33:16.852Z,45408
2018-04-27T14:34:27.040Z,20128
2018-04-27T14:35:36.998Z,14976
2018-04-27T14:36:47.250Z,14184
2018-04-27T14:37:57.505Z,17568
2018-04-27T14:39:07.777Z,30656
2018-04-27T14:40:18.062Z,36768
2018-04-27T14:41:28.237Z,39040
2018-04-27T14:42:38.394Z,33760
2018-04-27T14:43:48.650Z,29312
2018-04-27T14:44:58.875Z,31136
2018-04-27T14:46:09.047Z,28768
2018-04-27T14:47:19.402Z,19136
2018-04-27T14:48:29.350Z,16800
2018-04-27T14:49:39.536Z,15968
2018-04-27T14:50:49.692Z,15680
2018-04-27T14:51:59.879Z,14220
2018-04-27T14:53:09.835Z,13640
2018-04-27T14:54:19.520Z,12928
2018-04-27T14:55:29.847Z,12932
2018-04-27T14:56:40.057Z,12788
2018-04-27T14:57:50.320Z,12924
2018-04-27T14:59:00.591Z,13228
2018-04-27T15:00:10.758Z,14256
2018-04-27T15:01:20.640Z,14560
2018-04-27T15:02:30.808Z,14592
2018-04-27T15:03:40.623Z,13980
2018-04-27T15:04:50.825Z,14720
2018-04-27T15:06:01.406Z,15808
2018-04-27T15:07:11.617Z,15584
2018-04-27T15:08:21.791Z,14232
2018-04-27T15:09:32.065Z,13584
2018-04-27T15:10:42.321Z,13336
2018-04-27T15:11:52.546Z,13108
2018-04-27T15:13:02.691Z,13228
2018-04-27T15:14:12.906Z,13544
2018-04-27T15:15:23.127Z,13848
2018-04-27T15:16:33.306Z,13492
2018-04-27T15:17:43.471Z,13456
2018-04-27T15:18:53.650Z,12532
2018-04-27T15:20:03.529Z,12408
2018-04-27T15:21:13.782Z,13496
2018-04-27T15:22:24.001Z,14464
2018-04-27T15:23:34.365Z,15520
2018-04-27T15:24:44.519Z,16096
2018-04-27T15:25:54.679Z,15136
2018-04-27T15:27:05.850Z,15968
2018-04-27T15:28:16.106Z,15104
2018-04-27T15:29:26.296Z,15584
2018-04-27T15:30:36.441Z,13116
2018-04-27T15:31:46.672Z,12292
2018-04-27T15:32:56.908Z,12144
2018-04-27T15:34:07.197Z,12152
2018-04-27T15:35:17.376Z,12024
2018-04-27T15:36:27.566Z,11752
2018-04-27T15:37:37.756Z,11468
2018-04-27T15:38:48.064Z,11624
2018-04-27T15:39:58.040Z,11652
2018-04-27T15:41:08.279Z,11316
2018-04-27T15:42:18.440Z,11176
2018-04-27T15:43:28.664Z,11284
2018-04-27T15:44:38.816Z,11264
2018-04-27T15:45:49.020Z,10816
2018-04-27T15:46:59.049Z,10408
2018-04-27T15:48:09.261Z,9916
2018-04-27T15:49:19.444Z,9500
2018-04-27T15:50:29.716Z,9296
2018-04-27T15:51:39.884Z,9312
2018-04-27T15:52:50.151Z,9340